This is the latest recevied weather packets stored in our database for station/object KJ6HT. If no packets are shown the sender has not sent any weather packets the latest 1 day(s).
| Time | Temp. | Humidity | Pressure | Rain* | Wind** | Luminosity | Snow |
|---|---|---|---|---|---|---|---|
| 1836274725 | 23.89° C | 71% | 1010.9 hPa | 0 mm | 0.89 m/s, 274° | - | - |
| 1778040926 | 15° C | 66% | 1015.2 hPa | 0 mm | 0.45 m/s, 233° | - | - |
| 1778040039 | 15.56° C | 65% | 1014.9 hPa | 0 mm | 0 m/s | - | - |
| 1778039121 | 15.56° C | 64% | 1014.7 hPa | 0 mm | 1.34 m/s, 257° | - | - |
| 1778038225 | 16.11° C | 63% | 1014.4 hPa | 0 mm | 0.89 m/s, 224° | - | - |
| 1778037317 | 16.11° C | 61% | 1014.3 hPa | 0 mm | 2.68 m/s, 266° | - | - |
| 1778036419 | 16.11° C | 60% | 1014.1 hPa | 0 mm | 2.24 m/s, 240° | - | - |
| 1778035526 | 16.67° C | 58% | 1013.9 hPa | 0 mm | 1.34 m/s, 270° | - | - |
| 1778034613 | 16.67° C | 56% | 1013.5 hPa | 0 mm | 1.34 m/s, 226° | - | - |
| 1778033721 | 17.22° C | 54% | 1013.4 hPa | 0 mm | 2.24 m/s, 217° | - | - |
| 1778032813 | 17.22° C | 53% | 1013.3 hPa | 0 mm | 2.24 m/s, 226° | - | - |
| 1778031921 | 17.22° C | 53% | 1013.1 hPa | 0 mm | 1.34 m/s, 248° | - | - |
| 1778031012 | 17.78° C | 53% | 1012.9 hPa | 0 mm | 2.24 m/s, 332° | - | - |
| 1778030128 | 17.78° C | 52% | 1012.9 hPa | 0 mm | 0.89 m/s, 215° | - | - |
| 1778029213 | 18.33° C | 51% | 1012.8 hPa | 0 mm | 1.79 m/s, 268° | - | - |
| 1778028310 | 18.33° C | 49% | 1012.8 hPa | 0 mm | 2.24 m/s, 127° | - | - |
| 1778027410 | 18.89° C | 49% | 1012.8 hPa | 0 mm | 2.24 m/s, 231° | - | - |
| 1778026513 | 18.33° C | 48% | 1012.7 hPa | 0 mm | 1.79 m/s, 269° | - | - |
| 1778025608 | 19.44° C | 47% | 1012.5 hPa | 0 mm | 2.68 m/s, 205° | - | - |
| 1778024712 | 18.89° C | 48% | 1012.6 hPa | 0 mm | 2.24 m/s, 249° | - | - |
| 1778023807 | 18.89° C | 48% | 1012.5 hPa | 0 mm | 1.34 m/s, 300° | - | - |
| 1778022905 | 19.44° C | 47% | 1012.6 hPa | 0 mm | 1.79 m/s, 222° | - | - |
| 1778022004 | 19.44° C | 47% | 1012.5 hPa | 0 mm | 1.79 m/s, 221° | - | - |
| 1778021103 | 19.44° C | 47% | 1012.7 hPa | 0 mm | 1.79 m/s, 240° | - | - |
| 1778020202 | 20° C | 48% | 1012.7 hPa | 0 mm | 1.34 m/s, 256° | - | - |
* Rain latest hour (hover to see other rain measurements)
** Current wind speed in m/s (hover to see current wind gust speed)